Huron Regional Airport
KHON : now visible

Airfield :











YOU CAN JOIN US ON...

 
LOGIN :

Register | Disclaimer

   EN    FR    IT 

 









Legend :    VFR   Marginal VFR   IFR   Intensive IFR   Very Intensive IFR
Visi :
Ceiling :
>= 8 km
>= 3000ft
5 to 8 km
1000 to 3000 ft
1500m to 5 km
500 to 1000 ft
800 to 1500m
200 to 500 ft
< 800m
< 200 ft
Symbols :   Thunderstorms  Fog  Heavy snow  Heavy precipitations  Wind > 20 kt






- Airport Elevation : 1289 ft
- IATA code : HON


KHON - Huron Regional

CURRENT METAR :
  • 141555Z AUTO 19007KT 10SM CLR M03/M06 A3026 RMK AO2 SLP266 T10281056

EXPIRED METARs :
  • 141355Z AUTO 18004KT 7SM CLR M08/M10 A3026 RMK AO2 SLP270 T10831100

TAF KHON
Valid from the 14 at 12:00 until the 15 at 12:00 UTC


141137Z 1412/1512 VRB04KT P6SM SKC
FM141330 29005KT P6SM BKN050
FM141800 23007KT P6SM SCT050
FM150600 VRB04KT P6SM BKN150
FM151000 VRB04KT P6SM BKN025



MET'MAP, your aeronautical weather chart ! - Copyright ORBIFLY December 2007 - Disclaimer

ORBIFLY MET'MAP TEAM :

Programming & Development : Alexandra Zaïnal
Concept & Development : Baudouin d'Aumeries
Co-Development & Prog : Marc-Olivier Méhu
Technical & hardware support : Manuel Goepfert

Contact : metmap@orbifly.com




SOURCES & CREDITS :

   NOAA       Earth
Advisory